Time;durP1;ratioP1;P1;durP2;ratioP2;P2;SDS_P1;SDS_P2;PMS_P1;PMS_P2;Temp;Humidity;BMP_temperature;BMP_pressure;BME280_temperature;BME280_humidity;BME280_pressure;Samples;Min_cycle;Max_cycle;Signal;HPM_P1;HPM_P2
2022/08/14 00:01:39;;;;;;;3.88;1.65;;;;;;;;;;5053565;28;20049;-47
2022/08/14 00:04:05;;;;;;;9.48;1.77;;;;;;;;;;5052907;28;20052;-48
2022/08/14 00:06:35;;;;;;;3.45;1.67;;;;;;;;;;5052468;28;20374;-47
2022/08/14 00:09:01;;;;;;;4.80;1.70;;;;;;;;;;5053238;28;20466;-47
2022/08/14 00:11:30;;;;;;;7.13;1.73;;;;;;;;;;5053092;28;20053;-48
2022/08/14 00:16:49;;;;;;;5.53;1.63;;;;;;;;;;5053181;28;20469;-48
2022/08/14 00:19:18;;;;;;;3.20;1.60;;;;;;;;;;5053135;28;20052;-48
2022/08/14 00:21:46;;;;;;;9.00;2.15;;;;;;;;;;5053093;28;20143;-48
2022/08/14 00:24:19;;;;;;;6.20;2.00;;;;;;;;;;5052961;28;20080;-48
2022/08/14 00:26:49;;;;;;;5.60;1.75;;;;;;;;;;5052859;28;20053;-47
2022/08/14 00:29:19;;;;;;;3.75;1.60;;;;;;;;;;5065213;28;20056;-47
2022/08/14 00:31:56;;;;;;;3.22;1.33;;;;;;;;;;5073306;28;20130;-50
2022/08/14 00:34:23;;;;;;;2.95;1.80;;;;;;;;;;5073273;28;20060;-47
2022/08/14 00:36:53;;;;;;;1.65;1.15;;;;;;;;;;5073212;28;20053;-48
2022/08/14 00:39:24;;;;;;;3.83;1.55;;;;;;;;;;5062967;28;20060;-47
2022/08/14 00:41:52;;;;;;;3.47;1.67;;;;;;;;;;5053247;28;20106;-48
2022/08/14 00:44:21;;;;;;;7.40;1.80;;;;;;;;;;5044785;28;20466;-49
2022/08/14 00:46:52;;;;;;;5.22;1.90;;;;;;;;;;5048075;28;20049;-47
2022/08/14 00:49:18;;;;;;;4.03;1.95;;;;;;;;;;5052927;28;20048;-47
2022/08/14 00:51:48;;;;;;;4.93;1.70;;;;;;;;;;5052564;28;20059;-47
2022/08/14 00:54:17;;;;;;;6.03;1.98;;;;;;;;;;5052818;28;20057;-47
2022/08/14 00:56:46;;;;;;;3.50;1.65;;;;;;;;;;5053199;28;20063;-47
2022/08/14 00:59:13;;;;;;;6.03;2.50;;;;;;;;;;5052567;28;20053;-48
2022/08/14 01:01:43;;;;;;;4.80;1.80;;;;;;;;;;5052194;28;20064;-50
2022/08/14 01:04:13;;;;;;;4.82;1.80;;;;;;;;;;5052526;28;20075;-48
2022/08/14 01:06:54;;;;;;;3.00;1.45;;;;;;;;;;5052840;28;20049;-48
2022/08/14 01:09:22;;;;;;;4.18;1.67;;;;;;;;;;5052627;28;20064;-48
2022/08/14 01:11:50;;;;;;;4.18;1.65;;;;;;;;;;5048050;28;20053;-48
2022/08/14 01:14:18;;;;;;;4.28;1.70;;;;;;;;;;5052869;28;20041;-48
2022/08/14 01:16:45;;;;;;;5.63;2.10;;;;;;;;;;5052485;28;20136;-47
2022/08/14 01:22:08;;;;;;;3.42;1.58;;;;;;;;;;5052376;28;20079;-47
2022/08/14 01:24:37;;;;;;;6.15;1.58;;;;;;;;;;5052810;28;20079;-47
2022/08/14 01:27:16;;;;;;;3.97;1.63;;;;;;;;;;5052322;28;20061;-47
2022/08/14 01:29:46;;;;;;;3.38;1.60;;;;;;;;;;5067703;28;20051;-47
2022/08/14 01:32:12;;;;;;;3.80;1.70;;;;;;;;;;5076323;28;20056;-48
2022/08/14 01:34:40;;;;;;;6.88;2.00;;;;;;;;;;5076464;28;20044;-48
2022/08/14 01:37:18;;;;;;;3.20;1.73;;;;;;;;;;5074022;28;20066;-51
2022/08/14 01:39:46;;;;;;;4.68;2.35;;;;;;;;;;5061296;28;20136;-47
2022/08/14 01:42:15;;;;;;;7.43;2.13;;;;;;;;;;5035812;28;20467;-48
2022/08/14 01:44:43;;;;;;;5.85;2.10;;;;;;;;;;5035496;28;20042;-47
2022/08/14 01:47:19;;;;;;;1.92;1.33;;;;;;;;;;5053987;28;20477;-48
2022/08/14 01:49:48;;;;;;;4.72;1.45;;;;;;;;;;5056177;28;20115;-47
2022/08/14 01:52:17;;;;;;;5.18;2.20;;;;;;;;;;5050168;28;20049;-47
2022/08/14 01:54:46;;;;;;;4.43;2.00;;;;;;;;;;5056106;28;20057;-47
2022/08/14 01:57:15;;;;;;;5.20;1.83;;;;;;;;;;5055585;28;20060;-47
2022/08/14 01:59:43;;;;;;;4.45;1.85;;;;;;;;;;5054854;28;20075;-47
2022/08/14 02:02:19;;;;;;;6.43;2.70;;;;;;;;;;5055285;28;20172;-48
2022/08/14 02:04:46;;;;;;;3.30;2.03;;;;;;;;;;5055908;28;20075;-48
2022/08/14 02:07:16;;;;;;;4.88;2.28;;;;;;;;;;5055002;28;20124;-47
2022/08/14 02:09:46;;;;;;;7.50;2.72;;;;;;;;;;5055515;28;20053;-48
2022/08/14 02:12:15;;;;;;;4.85;2.28;;;;;;;;;;5055066;28;20371;-48
2022/08/14 02:14:42;;;;;;;4.18;2.30;;;;;;;;;;5055203;28;20040;-47
2022/08/14 02:17:12;;;;;;;4.35;2.15;;;;;;;;;;5055150;28;20359;-47
2022/08/14 02:19:38;;;;;;;3.40;1.95;;;;;;;;;;5050302;28;20057;-48
2022/08/14 02:22:05;;;;;;;12.75;2.33;;;;;;;;;;5034728;28;20060;-50
2022/08/14 02:24:32;;;;;;;4.07;1.65;;;;;;;;;;5035034;28;20060;-48
2022/08/14 02:27:05;;;;;;;6.60;2.33;;;;;;;;;;5034754;28;20397;-48
2022/08/14 02:29:35;;;;;;;6.50;2.28;;;;;;;;;;5048806;28;20057;-48
2022/08/14 02:32:02;;;;;;;4.07;2.10;;;;;;;;;;5055177;28;20053;-48
2022/08/14 02:34:33;;;;;;;3.00;1.90;;;;;;;;;;5055007;28;20041;-48
2022/08/14 02:37:08;;;;;;;4.68;2.33;;;;;;;;;;5055260;28;20059;-47
2022/08/14 02:39:41;;;;;;;4.85;1.95;;;;;;;;;;5055100;28;20149;-51
2022/08/14 02:42:12;;;;;;;5.03;1.83;;;;;;;;;;5054411;28;20061;-50
2022/08/14 02:44:40;;;;;;;4.55;1.92;;;;;;;;;;5054895;28;20052;-48
2022/08/14 02:47:10;;;;;;;5.50;1.77;;;;;;;;;;5037160;28;20057;-48
2022/08/14 02:49:40;;;;;;;2.40;1.50;;;;;;;;;;5035150;28;20072;-47
2022/08/14 02:52:09;;;;;;;5.45;1.80;;;;;;;;;;5039784;28;20041;-51
2022/08/14 02:54:38;;;;;;;2.42;1.80;;;;;;;;;;5054406;28;20103;-50
2022/08/14 02:57:06;;;;;;;3.38;2.10;;;;;;;;;;5054482;28;20397;-48
2022/08/14 02:59:42;;;;;;;2.78;1.63;;;;;;;;;;5054339;28;20052;-47
2022/08/14 03:02:11;;;;;;;6.85;2.40;;;;;;;;;;5054481;28;20133;-47
2022/08/14 03:04:39;;;;;;;4.28;2.10;;;;;;;;;;5054498;28;20041;-47
2022/08/14 03:07:08;;;;;;;8.00;2.20;;;;;;;;;;5053850;28;20059;-47
2022/08/14 03:09:35;;;;;;;6.22;2.17;;;;;;;;;;5054108;28;20049;-48
2022/08/14 03:12:04;;;;;;;6.47;2.38;;;;;;;;;;5054132;28;20068;-47
2022/08/14 03:14:44;;;;;;;6.13;2.58;;;;;;;;;;5053853;28;20451;-48
2022/08/14 03:17:21;;;;;;;4.00;2.28;;;;;;;;;;5038779;28;20057;-49
2022/08/14 03:19:51;;;;;;;4.90;1.45;;;;;;;;;;5034470;28;20053;-48
2022/08/14 03:22:22;;;;;;;3.05;1.90;;;;;;;;;;5034240;28;20128;-48
2022/08/14 03:24:49;;;;;;;3.03;1.85;;;;;;;;;;5034373;28;20076;-49
2022/08/14 03:27:16;;;;;;;5.57;2.22;;;;;;;;;;5034007;28;20068;-48
2022/08/14 03:29:46;;;;;;;4.03;1.90;;;;;;;;;;5049264;28;20063;-49
2022/08/14 03:32:30;;;;;;;2.92;2.03;;;;;;;;;;5054161;28;20053;-48
2022/08/14 03:35:00;;;;;;;3.17;1.50;;;;;;;;;;5053712;28;20411;-48
2022/08/14 03:37:27;;;;;;;4.05;1.98;;;;;;;;;;5053955;28;20059;-47
2022/08/14 03:39:56;;;;;;;5.20;2.30;;;;;;;;;;5053601;28;20049;-48
2022/08/14 03:42:25;;;;;;;5.50;2.45;;;;;;;;;;5053762;28;20151;-48
2022/08/14 03:44:52;;;;;;;7.30;2.83;;;;;;;;;;5041448;28;20064;-48
2022/08/14 03:47:23;;;;;;;3.80;1.92;;;;;;;;;;5052688;28;20450;-48
2022/08/14 03:49:50;;;;;;;5.90;2.42;;;;;;;;;;5053607;28;20442;-48
2022/08/14 03:52:21;;;;;;;5.28;2.28;;;;;;;;;;5052839;28;20389;-48
2022/08/14 03:54:49;;;;;;;6.05;2.42;;;;;;;;;;5053326;28;20136;-48
2022/08/14 03:57:16;;;;;;;3.70;2.00;;;;;;;;;;5053725;28;20045;-48
2022/08/14 03:59:46;;;;;;;4.28;2.38;;;;;;;;;;5053269;28;20048;-50
2022/08/14 04:02:13;;;;;;;5.82;2.42;;;;;;;;;;5053611;28;20057;-47
2022/08/14 04:04:48;;;;;;;5.30;2.45;;;;;;;;;;5053473;28;20055;-48
2022/08/14 04:07:16;;;;;;;;;;;;;;;;;;5053625;28;20092;-49
2022/08/14 04:09:45;;;;;;;4.25;2.35;;;;;;;;;;5053005;28;20016;-49
2022/08/14 04:12:18;;;;;;;4.47;2.38;;;;;;;;;;5047986;28;20488;-48
2022/08/14 04:14:51;;;;;;;3.85;1.80;;;;;;;;;;5053339;28;20052;-48
2022/08/14 04:17:19;;;;;;;6.50;2.75;;;;;;;;;;5053056;28;20049;-49
2022/08/14 04:19:51;;;;;;;4.53;2.30;;;;;;;;;;5053409;28;20053;-49
2022/08/14 04:22:26;;;;;;;4.18;2.33;;;;;;;;;;5052789;28;20640;-47
2022/08/14 04:24:56;;;;;;;5.38;2.22;;;;;;;;;;5052981;28;20057;-47
2022/08/14 04:27:26;;;;;;;3.92;2.40;;;;;;;;;;5037638;28;20068;-48
2022/08/14 04:29:53;;;;;;;4.97;2.55;;;;;;;;;;5049297;28;20052;-48
2022/08/14 04:32:24;;;;;;;7.00;2.85;;;;;;;;;;5053027;28;20045;-47
2022/08/14 04:35:09;;;;;;;6.70;2.42;;;;;;;;;;5053039;28;20060;-47
2022/08/14 04:43:38;;;;;;;6.40;2.33;;;;;;;;;;4991089;28;20058;-50
2022/08/14 04:46:12;;;;;;;5.85;3.15;;;;;;;;;;4991411;28;20082;-48
2022/08/14 04:48:38;;;;;;;9.18;3.20;;;;;;;;;;5045387;28;20140;-47
2022/08/14 04:51:06;;;;;;;5.88;3.10;;;;;;;;;;5053012;28;20139;-48
2022/08/14 04:53:49;;;;;;;7.50;3.63;;;;;;;;;;5052943;28;20119;-47
2022/08/14 04:56:21;;;;;;;5.30;3.20;;;;;;;;;;5033079;28;20045;-48
2022/08/14 04:58:56;;;;;;;5.65;2.80;;;;;;;;;;5032693;28;20107;-47
2022/08/14 05:01:26;;;;;;;4.53;3.05;;;;;;;;;;5033070;28;20065;-48
2022/08/14 05:03:56;;;;;;;10.63;3.45;;;;;;;;;;5033031;28;20132;-48
2022/08/14 05:06:24;;;;;;;6.38;3.05;;;;;;;;;;5037349;28;20045;-49
2022/08/14 05:08:52;;;;;;;10.18;3.85;;;;;;;;;;5045498;28;20477;-51
2022/08/14 05:11:19;;;;;;;10.45;4.20;;;;;;;;;;5055368;28;20059;-48
2022/08/14 05:13:48;;;;;;;12.05;3.50;;;;;;;;;;5056447;28;20060;-48
2022/08/14 05:16:18;;;;;;;8.43;3.08;;;;;;;;;;5056565;28;20051;-47
2022/08/14 05:18:48;;;;;;;11.77;4.35;;;;;;;;;;5056507;28;20092;-48
2022/08/14 05:21:18;;;;;;;6.72;3.75;;;;;;;;;;5056490;28;20068;-47
2022/08/14 05:23:46;;;;;;;8.38;4.07;;;;;;;;;;5056686;28;20135;-48
2022/08/14 05:26:16;;;;;;;11.63;4.60;;;;;;;;;;5056135;28;20126;-49
2022/08/14 05:28:52;;;;;;;7.68;4.32;;;;;;;;;;5055622;28;20131;-48
2022/08/14 05:31:20;;;;;;;15.65;6.13;;;;;;;;;;5054358;28;20053;-48
2022/08/14 05:33:48;;;;;;;17.65;6.22;;;;;;;;;;5055719;28;20053;-49
2022/08/14 05:36:16;;;;;;;10.95;5.53;;;;;;;;;;5056165;28;20048;-48
2022/08/14 05:38:44;;;;;;;12.70;6.20;;;;;;;;;;5056115;28;20041;-48
2022/08/14 05:41:15;;;;;;;9.85;5.22;;;;;;;;;;5055796;28;20063;-47
2022/08/14 05:43:49;;;;;;;11.55;5.47;;;;;;;;;;5055281;28;20501;-48
2022/08/14 05:46:21;;;;;;;8.90;5.43;;;;;;;;;;5055677;28;20080;-47
2022/08/14 05:48:53;;;;;;;7.20;5.00;;;;;;;;;;5055533;28;20351;-47
2022/08/14 05:51:27;;;;;;;9.25;4.88;;;;;;;;;;5055939;28;20052;-47
2022/08/14 05:53:58;;;;;;;10.27;4.97;;;;;;;;;;5055617;28;20053;-48
2022/08/14 05:56:25;;;;;;;13.07;5.35;;;;;;;;;;5055191;28;20303;-47
2022/08/14 05:59:07;;;;;;;9.13;5.20;;;;;;;;;;5054783;28;20079;-47
2022/08/14 06:01:35;;;;;;;10.20;4.95;;;;;;;;;;5054566;28;20048;-48
2022/08/14 06:04:01;;;;;;;7.70;4.30;;;;;;;;;;5054472;28;20063;-47
2022/08/14 06:06:31;;;;;;;10.90;4.50;;;;;;;;;;5054845;28;20182;-47
2022/08/14 06:08:57;;;;;;;10.48;5.03;;;;;;;;;;5054771;28;20052;-48
2022/08/14 06:11:26;;;;;;;6.55;3.92;;;;;;;;;;5055385;28;20139;-48
2022/08/14 06:14:06;;;;;;;9.27;4.75;;;;;;;;;;5055132;28;20045;-47
2022/08/14 06:16:33;;;;;;;11.23;5.10;;;;;;;;;;5054206;28;20451;-50
2022/08/14 06:19:04;;;;;;;10.82;4.53;;;;;;;;;;5055083;28;20473;-48
2022/08/14 06:21:30;;;;;;;10.32;4.13;;;;;;;;;;5050182;28;20092;-47
2022/08/14 06:23:58;;;;;;;7.72;4.55;;;;;;;;;;5035502;28;20058;-47
2022/08/14 06:26:24;;;;;;;6.82;3.60;;;;;;;;;;5034753;28;20473;-48
2022/08/14 06:28:54;;;;;;;7.03;3.60;;;;;;;;;;5042553;28;20071;-48
2022/08/14 06:31:28;;;;;;;7.70;4.07;;;;;;;;;;5052475;28;20098;-47
2022/08/14 06:33:58;;;;;;;7.70;3.33;;;;;;;;;;5054202;28;20063;-49
2022/08/14 06:36:26;;;;;;;9.48;3.40;;;;;;;;;;5055314;28;20084;-47
2022/08/14 06:38:55;;;;;;;9.85;3.60;;;;;;;;;;5055566;28;20067;-48
2022/08/14 06:41:25;;;;;;;6.93;3.38;;;;;;;;;;5049233;28;20517;-48
2022/08/14 06:43:54;;;;;;;9.38;3.50;;;;;;;;;;5055226;28;20052;-51
2022/08/14 06:46:26;;;;;;;4.57;3.17;;;;;;;;;;5046361;28;20053;-49
2022/08/14 06:49:06;;;;;;;4.65;3.13;;;;;;;;;;5054811;28;20099;-48
2022/08/14 06:51:35;;;;;;;5.38;3.10;;;;;;;;;;5042152;28;20111;-49
2022/08/14 06:54:05;;;;;;;5.95;3.42;;;;;;;;;;5051912;28;20051;-48
2022/08/14 06:56:33;;;;;;;6.45;2.88;;;;;;;;;;5054130;28;20128;-48
2022/08/14 06:59:03;;;;;;;5.90;2.88;;;;;;;;;;5054724;28;20056;-48
2022/08/14 07:07:09;;;;;;;7.70;3.15;;;;;;;;;;5053271;28;20459;-51
2022/08/14 07:09:37;;;;;;;7.90;2.75;;;;;;;;;;5046558;28;20053;-48
2022/08/14 07:12:04;;;;;;;4.93;2.60;;;;;;;;;;5053473;28;20101;-47
2022/08/14 07:14:33;;;;;;;9.73;3.38;;;;;;;;;;5042261;28;20128;-50
2022/08/14 07:17:03;;;;;;;7.47;2.97;;;;;;;;;;5040496;28;20045;-48
2022/08/14 07:19:31;;;;;;;3.58;2.42;;;;;;;;;;5042993;28;20747;-47
2022/08/14 07:22:03;;;;;;;10.45;2.85;;;;;;;;;;5054565;28;20049;-49
2022/08/14 07:24:32;;;;;;;6.72;2.67;;;;;;;;;;5054592;28;20091;-48
2022/08/14 07:26:58;;;;;;;4.32;2.45;;;;;;;;;;5053871;28;20087;-49
2022/08/14 07:29:25;;;;;;;4.88;2.58;;;;;;;;;;5051814;28;20385;-48
2022/08/14 07:31:55;;;;;;;5.35;2.70;;;;;;;;;;5053584;28;20045;-48
2022/08/14 07:34:25;;;;;;;4.35;2.97;;;;;;;;;;5053572;28;20139;-51
2022/08/14 07:37:01;;;;;;;6.68;2.92;;;;;;;;;;5053536;28;20071;-47
2022/08/14 07:39:29;;;;;;;10.38;3.28;;;;;;;;;;5054037;28;20063;-48
2022/08/14 07:41:58;;;;;;;5.78;2.25;;;;;;;;;;5054039;28;20070;-48
2022/08/14 07:44:26;;;;;;;4.05;2.38;;;;;;;;;;5053772;28;20060;-49
2022/08/14 07:46:54;;;;;;;8.52;2.92;;;;;;;;;;5037624;28;20562;-51
2022/08/14 07:49:36;;;;;;;4.78;2.38;;;;;;;;;;5033952;28;20053;-48
2022/08/14 07:52:06;;;;;;;8.52;2.28;;;;;;;;;;5037970;28;20466;-48
2022/08/14 07:54:35;;;;;;;6.18;2.75;;;;;;;;;;5053976;28;20045;-48
2022/08/14 07:57:03;;;;;;;3.85;2.40;;;;;;;;;;5053813;28;20145;-48
2022/08/14 07:59:33;;;;;;;5.35;2.40;;;;;;;;;;5053333;28;20080;-48
2022/08/14 08:02:03;;;;;;;5.90;2.72;;;;;;;;;;5053679;28;20084;-47
2022/08/14 08:04:48;;;;;;;3.65;2.20;;;;;;;;;;5053435;28;20473;-47
2022/08/14 08:07:17;;;;;;;4.00;2.15;;;;;;;;;;5053738;28;20053;-48
2022/08/14 08:09:48;;;;;;;6.93;2.72;;;;;;;;;;5053356;28;20141;-48
2022/08/14 08:12:19;;;;;;;7.30;2.45;;;;;;;;;;5053497;28;20071;-50
2022/08/14 08:14:47;;;;;;;4.72;2.65;;;;;;;;;;5041964;28;20053;-48
2022/08/14 08:17:17;;;;;;;4.35;2.40;;;;;;;;;;5033456;28;20093;-48
2022/08/14 08:19:56;;;;;;;4.90;2.22;;;;;;;;;;5033555;28;20134;-49
2022/08/14 08:22:23;;;;;;;4.85;2.42;;;;;;;;;;5036386;28;20048;-47
2022/08/14 08:24:53;;;;;;;5.55;2.60;;;;;;;;;;5053288;28;20056;-47
2022/08/14 08:27:21;;;;;;;3.38;2.03;;;;;;;;;;5052628;28;20049;-48
2022/08/14 08:29:51;;;;;;;3.70;2.45;;;;;;;;;;5053224;28;20123;-48
2022/08/14 08:32:19;;;;;;;5.20;2.58;;;;;;;;;;5049679;28;20070;-47
2022/08/14 08:34:53;;;;;;;5.53;2.40;;;;;;;;;;5052073;28;20056;-49
2022/08/14 08:37:20;;;;;;;7.70;2.95;;;;;;;;;;5053341;28;20200;-48
2022/08/14 08:39:51;;;;;;;4.90;3.10;;;;;;;;;;5048692;28;20045;-49
2022/08/14 08:42:30;;;;;;;6.03;2.78;;;;;;;;;;5042874;28;20111;-49
2022/08/14 08:44:59;;;;;;;6.35;2.50;;;;;;;;;;5043293;28;20386;-47
2022/08/14 08:47:39;;;;;;;5.18;2.17;;;;;;;;;;5046400;28;20127;-48
2022/08/14 08:50:20;;;;;;;4.03;2.35;;;;;;;;;;5047015;28;20076;-48
2022/08/14 08:52:48;;;;;;;5.55;2.78;;;;;;;;;;5045115;28;20049;-48
2022/08/14 08:55:17;;;;;;;5.68;3.03;;;;;;;;;;5045928;28;20497;-48
2022/08/14 08:57:45;;;;;;;6.55;2.47;;;;;;;;;;5044167;28;20045;-48
2022/08/14 09:00:19;;;;;;;5.53;2.45;;;;;;;;;;5044063;28;20053;-49
2022/08/14 09:02:52;;;;;;;2.60;1.92;;;;;;;;;;5040554;28;20048;-48
2022/08/14 09:05:22;;;;;;;2.50;1.95;;;;;;;;;;5047385;28;20110;-49
2022/08/14 09:07:52;;;;;;;5.25;2.70;;;;;;;;;;5051566;28;20049;-48
2022/08/14 09:10:19;;;;;;;7.20;2.20;;;;;;;;;;5037665;28;20060;-48
2022/08/14 09:12:56;;;;;;;6.30;2.70;;;;;;;;;;5046500;28;20052;-48
2022/08/14 09:15:22;;;;;;;3.17;1.92;;;;;;;;;;5052385;28;20527;-48
2022/08/14 09:17:50;;;;;;;6.82;2.65;;;;;;;;;;5051829;28;20045;-50
2022/08/14 09:20:18;;;;;;;5.40;1.98;;;;;;;;;;5052480;28;20076;-48
2022/08/14 09:22:56;;;;;;;4.47;2.30;;;;;;;;;;5046815;28;20049;-48
2022/08/14 09:25:23;;;;;;;4.97;2.55;;;;;;;;;;5041212;28;20060;-49
2022/08/14 09:27:51;;;;;;;4.10;2.15;;;;;;;;;;5040396;28;20053;-48
2022/08/14 09:30:20;;;;;;;3.90;2.20;;;;;;;;;;5040257;28;20053;-48
2022/08/14 09:32:55;;;;;;;4.30;2.20;;;;;;;;;;5039075;28;20063;-48
2022/08/14 09:35:26;;;;;;;4.75;2.30;;;;;;;;;;5034631;28;20060;-49
2022/08/14 09:38:02;;;;;;;5.63;2.17;;;;;;;;;;5050497;28;20045;-49
2022/08/14 09:40:38;;;;;;;3.53;2.22;;;;;;;;;;5052818;28;20106;-48
2022/08/14 09:43:15;;;;;;;4.13;1.92;;;;;;;;;;5045651;28;20130;-49
2022/08/14 09:45:56;;;;;;;6.30;2.42;;;;;;;;;;5042498;28;20080;-48
2022/08/14 09:48:24;;;;;;;4.40;2.20;;;;;;;;;;5051987;28;20041;-48
2022/08/14 09:51:01;;;;;;;6.28;2.40;;;;;;;;;;5052511;28;20087;-48
2022/08/14 09:53:40;;;;;;;9.45;2.78;;;;;;;;;;5055000;28;20065;-48
2022/08/14 09:56:09;;;;;;;4.07;2.05;;;;;;;;;;5055872;28;20123;-47
2022/08/14 09:58:41;;;;;;;4.63;2.30;;;;;;;;;;5042136;28;20601;-48
2022/08/14 10:01:12;;;;;;;4.10;2.17;;;;;;;;;;5055261;28;20539;-48
2022/08/14 10:03:51;;;;;;;2.80;2.10;;;;;;;;;;5055191;28;20048;-48
2022/08/14 10:06:27;;;;;;;3.55;2.40;;;;;;;;;;5054755;28;20307;-48
2022/08/14 10:09:08;;;;;;;5.10;2.53;;;;;;;;;;5055290;28;20106;-48
2022/08/14 10:11:43;;;;;;;4.57;2.15;;;;;;;;;;5055509;28;20057;-50
2022/08/14 10:14:16;;;;;;;8.27;2.70;;;;;;;;;;5055363;28;20060;-49
2022/08/14 10:16:45;;;;;;;3.97;2.50;;;;;;;;;;5055302;28;20175;-47
2022/08/14 10:19:14;;;;;;;4.68;2.92;;;;;;;;;;5055262;28;20072;-48
2022/08/14 10:21:50;;;;;;;4.45;2.20;;;;;;;;;;5055218;28;20123;-48
2022/08/14 10:24:28;;;;;;;4.53;2.45;;;;;;;;;;5055279;28;20055;-48
2022/08/14 10:26:58;;;;;;;4.68;2.35;;;;;;;;;;5035034;28;20431;-48
2022/08/14 10:29:36;;;;;;;6.40;2.33;;;;;;;;;;5059848;28;20052;-49
2022/08/14 10:32:07;;;;;;;5.78;2.60;;;;;;;;;;5075217;28;20068;-48
2022/08/14 10:34:38;;;;;;;12.48;2.50;;;;;;;;;;5070743;28;20055;-47
2022/08/14 10:37:10;;;;;;;7.75;2.33;;;;;;;;;;5054837;28;20049;-48
2022/08/14 10:39:58;;;;;;;8.77;2.42;;;;;;;;;;5055019;28;20338;-49
2022/08/14 10:42:37;;;;;;;8.82;2.55;;;;;;;;;;5055126;28;20049;-48
2022/08/14 10:45:22;;;;;;;4.45;2.10;;;;;;;;;;5054386;28;20045;-48
2022/08/14 10:47:51;;;;;;;3.38;2.15;;;;;;;;;;5035136;28;20049;-47
2022/08/14 10:50:30;;;;;;;26.92;4.47;;;;;;;;;;5034679;28;20456;-48
2022/08/14 10:53:04;;;;;;;3.35;2.40;;;;;;;;;;5046560;28;20131;-48
2022/08/14 10:55:41;;;;;;;4.60;2.20;;;;;;;;;;5055011;28;20143;-48
2022/08/14 10:58:11;;;;;;;6.05;2.70;;;;;;;;;;5054650;28;20041;-48
2022/08/14 11:00:41;;;;;;;4.07;2.30;;;;;;;;;;5054304;28;20052;-49
2022/08/14 11:03:12;;;;;;;6.45;2.50;;;;;;;;;;5054585;28;20049;-49
2022/08/14 11:05:40;;;;;;;6.05;2.45;;;;;;;;;;5054418;28;20156;-48
2022/08/14 11:08:07;;;;;;;3.88;2.45;;;;;;;;;;5054218;28;20064;-51
2022/08/14 11:10:49;;;;;;;4.45;2.50;;;;;;;;;;5054603;28;20045;-49
2022/08/14 11:13:20;;;;;;;6.90;2.50;;;;;;;;;;5054559;28;20132;-48
2022/08/14 11:15:56;;;;;;;5.63;2.58;;;;;;;;;;5054456;28;20056;-48
2022/08/14 11:18:26;;;;;;;4.50;2.63;;;;;;;;;;5054347;28;20055;-49
2022/08/14 11:21:02;;;;;;;7.50;2.58;;;;;;;;;;5053881;28;20060;-47
2022/08/14 11:23:33;;;;;;;9.23;3.00;;;;;;;;;;5054488;28;20243;-47
2022/08/14 11:26:05;;;;;;;6.43;2.80;;;;;;;;;;5054624;28;20095;-49
2022/08/14 11:28:33;;;;;;;4.45;2.58;;;;;;;;;;5053227;28;20055;-48
2022/08/14 11:31:02;;;;;;;3.65;2.35;;;;;;;;;;5053521;28;20068;-49
2022/08/14 11:33:35;;;;;;;6.53;2.72;;;;;;;;;;5053490;28;20055;-48
2022/08/14 11:36:04;;;;;;;6.63;2.95;;;;;;;;;;5047376;28;20497;-48
2022/08/14 11:38:39;;;;;;;6.93;2.58;;;;;;;;;;5043259;28;20462;-47
2022/08/14 11:41:09;;;;;;;8.55;2.97;;;;;;;;;;5042787;28;20053;-48
2022/08/14 11:43:40;;;;;;;7.50;3.13;;;;;;;;;;5052070;28;20049;-51
2022/08/14 11:46:17;;;;;;;8.13;2.85;;;;;;;;;;5053598;28;20535;-48
2022/08/14 11:48:50;;;;;;;5.60;2.58;;;;;;;;;;5048217;28;20381;-48
2022/08/14 11:51:22;;;;;;;16.73;4.13;;;;;;;;;;5053657;28;20122;-48
2022/08/14 11:54:01;;;;;;;5.07;2.58;;;;;;;;;;5053810;28;20291;-48
2022/08/14 11:56:35;;;;;;;4.90;2.65;;;;;;;;;;5053952;28;20060;-48
2022/08/14 11:59:03;;;;;;;;;;;;;;;;;;5053939;28;20055;-48
2022/08/14 12:01:33;;;;;;;7.55;3.20;;;;;;;;;;5053274;28;19951;-47
2022/08/14 12:04:10;;;;;;;5.82;3.00;;;;;;;;;;5053099;28;20053;-48
2022/08/14 12:06:45;;;;;;;7.05;3.30;;;;;;;;;;5053362;28;20398;-49
2022/08/14 12:09:12;;;;;;;3.63;2.70;;;;;;;;;;5053569;28;20045;-48
2022/08/14 12:11:48;;;;;;;7.07;3.20;;;;;;;;;;5053516;28;20059;-49
2022/08/14 12:14:18;;;;;;;6.75;3.10;;;;;;;;;;5052746;28;20377;-47
2022/08/14 12:16:49;;;;;;;3.78;3.15;;;;;;;;;;5052787;28;20049;-51
2022/08/14 12:19:20;;;;;;;7.20;2.92;;;;;;;;;;5052938;28;20091;-48
2022/08/14 12:21:50;;;;;;;6.53;2.72;;;;;;;;;;5052945;28;20057;-49
2022/08/14 12:24:20;;;;;;;4.55;2.65;;;;;;;;;;5053384;28;20067;-48
2022/08/14 12:26:55;;;;;;;5.13;2.85;;;;;;;;;;5052470;28;20052;-47
2022/08/14 12:29:25;;;;;;;6.40;2.70;;;;;;;;;;5064316;28;20122;-48
2022/08/14 12:31:59;;;;;;;6.25;3.05;;;;;;;;;;5053158;28;20079;-48
2022/08/14 12:34:41;;;;;;;5.25;2.80;;;;;;;;;;5052917;28;20465;-50
2022/08/14 12:37:09;;;;;;;4.40;3.00;;;;;;;;;;5052920;28;20568;-47
2022/08/14 12:39:39;;;;;;;31.38;3.80;;;;;;;;;;5052883;28;20045;-48
2022/08/14 12:42:15;;;;;;;6.55;2.97;;;;;;;;;;5046518;28;20053;-48
2022/08/14 12:44:45;;;;;;;7.13;3.05;;;;;;;;;;5051768;28;20057;-48
2022/08/14 12:47:16;;;;;;;5.78;3.30;;;;;;;;;;5052021;28;20064;-49
2022/08/14 12:49:53;;;;;;;6.00;2.88;;;;;;;;;;5052684;28;20045;-48
2022/08/14 12:52:27;;;;;;;7.25;2.75;;;;;;;;;;5052434;28;20057;-47
2022/08/14 12:55:05;;;;;;;3.97;2.80;;;;;;;;;;5050604;28;20053;-47
2022/08/14 12:57:41;;;;;;;16.33;3.63;;;;;;;;;;5048024;28;20084;-49
2022/08/14 13:00:19;;;;;;;6.40;3.13;;;;;;;;;;5037135;28;20048;-48
2022/08/14 13:02:56;;;;;;;5.53;3.42;;;;;;;;;;5049484;28;20049;-47
2022/08/14 13:05:25;;;;;;;5.20;3.30;;;;;;;;;;5052805;28;20124;-48
2022/08/14 13:07:52;;;;;;;6.25;3.22;;;;;;;;;;5050596;28;20052;-48
2022/08/14 13:10:21;;;;;;;6.35;2.78;;;;;;;;;;5048526;28;20132;-47
2022/08/14 13:13:03;;;;;;;6.60;3.42;;;;;;;;;;5052044;28;20061;-48
2022/08/14 13:15:34;;;;;;;10.30;3.40;;;;;;;;;;5051456;28;20079;-48
2022/08/14 13:18:05;;;;;;;5.25;3.40;;;;;;;;;;5049781;28;20053;-48
2022/08/14 13:20:36;;;;;;;5.40;3.08;;;;;;;;;;5052278;28;20114;-47
2022/08/14 13:23:07;;;;;;;6.07;3.33;;;;;;;;;;5052102;28;20396;-48
2022/08/14 13:25:39;;;;;;;6.25;2.85;;;;;;;;;;5052971;28;20136;-47
2022/08/14 13:28:22;;;;;;;10.65;3.85;;;;;;;;;;5049060;28;20067;-48
2022/08/14 13:30:53;;;;;;;4.70;3.80;;;;;;;;;;5056024;28;20056;-50
2022/08/14 13:33:23;;;;;;;9.45;4.18;;;;;;;;;;5056481;28;20057;-48
2022/08/14 13:35:49;;;;;;;5.65;3.67;;;;;;;;;;5056236;28;20053;-49
2022/08/14 13:38:19;;;;;;;9.75;4.15;;;;;;;;;;5055819;28;20068;-47
2022/08/14 13:40:53;;;;;;;9.18;6.03;;;;;;;;;;5056539;28;20085;-48
2022/08/14 13:43:26;;;;;;;7.53;4.50;;;;;;;;;;5055746;28;20477;-47
2022/08/14 13:45:56;;;;;;;7.43;5.70;;;;;;;;;;5050161;28;20128;-47
2022/08/14 13:48:24;;;;;;;7.63;4.90;;;;;;;;;;5043091;28;20142;-48
2022/08/14 13:50:58;;;;;;;5.15;4.30;;;;;;;;;;5055340;28;20084;-48
2022/08/14 13:53:28;;;;;;;4.57;3.88;;;;;;;;;;5045154;28;20054;-49
2022/08/14 13:56:04;;;;;;;6.75;4.38;;;;;;;;;;5055170;28;20053;-48
2022/08/14 13:58:36;;;;;;;7.30;4.15;;;;;;;;;;5055343;28;20088;-48
2022/08/14 14:01:05;;;;;;;16.13;4.55;;;;;;;;;;5055221;28;20053;-47
2022/08/14 14:03:36;;;;;;;5.65;3.67;;;;;;;;;;5055509;28;20118;-48
2022/08/14 14:06:06;;;;;;;7.60;4.05;;;;;;;;;;5055332;28;20759;-48
2022/08/14 14:08:44;;;;;;;6.40;3.55;;;;;;;;;;5049984;28;20056;-49
2022/08/14 14:11:12;;;;;;;7.72;4.00;;;;;;;;;;5055130;28;20421;-50
2022/08/14 14:13:47;;;;;;;9.88;4.72;;;;;;;;;;5055355;28;20053;-48
2022/08/14 14:16:16;;;;;;;22.02;5.15;;;;;;;;;;5039848;28;20414;-48
2022/08/14 14:18:47;;;;;;;6.53;4.13;;;;;;;;;;5053733;28;20103;-47
2022/08/14 14:21:15;;;;;;;7.38;4.78;;;;;;;;;;5042896;28;20500;-47
2022/08/14 14:23:46;;;;;;;15.38;4.38;;;;;;;;;;5055171;28;20060;-48
2022/08/14 14:26:15;;;;;;;10.68;4.22;;;;;;;;;;5054186;28;20144;-47
2022/08/14 14:28:49;;;;;;;5.07;3.72;;;;;;;;;;5050163;28;20136;-48
2022/08/14 14:31:20;;;;;;;;;;;;;;;;;;5049931;28;20616;-48
2022/08/14 14:33:51;;;;;;;6.75;3.28;;;;;;;;;;5055395;28;19964;-48
2022/08/14 14:36:19;;;;;;;4.97;3.67;;;;;;;;;;5052174;28;20088;-47
2022/08/14 14:38:47;;;;;;;9.52;4.43;;;;;;;;;;5054137;28;20063;-49
2022/08/14 14:41:16;;;;;;;7.28;4.28;;;;;;;;;;5055205;28;20059;-48
2022/08/14 14:43:53;;;;;;;8.48;3.50;;;;;;;;;;5054790;28;20503;-48
2022/08/14 14:46:23;;;;;;;10.82;4.10;;;;;;;;;;5049090;28;20365;-48
2022/08/14 14:48:50;;;;;;;6.82;3.75;;;;;;;;;;5047299;28;20095;-48
2022/08/14 14:51:19;;;;;;;5.63;3.63;;;;;;;;;;5052357;28;20052;-48
2022/08/14 14:53:48;;;;;;;6.90;3.50;;;;;;;;;;5054239;28;20053;-48
2022/08/14 14:56:16;;;;;;;7.43;5.07;;;;;;;;;;5055057;28;20084;-49
2022/08/14 14:58:45;;;;;;;14.18;5.32;;;;;;;;;;5054372;28;20045;-48
2022/08/14 15:01:13;;;;;;;7.95;4.47;;;;;;;;;;5053956;28;20059;-48
2022/08/14 15:03:42;;;;;;;6.82;4.90;;;;;;;;;;5054784;28;20106;-48
2022/08/14 15:06:10;;;;;;;11.10;5.25;;;;;;;;;;5053274;28;20091;-48
2022/08/14 15:08:39;;;;;;;9.30;5.05;;;;;;;;;;5054664;28;20049;-47
2022/08/14 15:11:10;;;;;;;9.50;5.60;;;;;;;;;;5043645;28;20080;-48
2022/08/14 15:13:40;;;;;;;16.60;7.25;;;;;;;;;;5050459;28;20052;-49
2022/08/14 15:16:16;;;;;;;10.25;5.93;;;;;;;;;;5041602;28;20378;-48
2022/08/14 15:18:53;;;;;;;12.60;6.93;;;;;;;;;;5054289;28;20335;-48
2022/08/14 15:21:22;;;;;;;14.00;7.38;;;;;;;;;;5048756;28;20058;-47
2022/08/14 15:23:52;;;;;;;12.85;8.20;;;;;;;;;;5039279;28;20060;-48